Time;durP1;ratioP1;P1;durP2;ratioP2;P2;SDS_P1;SDS_P2;PMS_P1;PMS_P2;Temp;Humidity;BMP_temperature;BMP_pressure;BME280_temperature;BME280_humidity;BME280_pressure;Samples;Min_cycle;Max_cycle;Signal;HPM_P1;HPM_P2
2022/11/22 00:02:17;;;;;;;7.15;4.40;;;;;;;6.29;73.16;98839.53;5050982;28;20025;-66
2022/11/22 00:04:42;;;;;;;7.05;5.00;;;;;;;6.24;73.00;98840.47;5050912;28;20083;-66
2022/11/22 00:07:08;;;;;;;6.53;4.97;;;;;;;6.16;72.71;98839.31;5050669;28;20024;-66
2022/11/22 00:09:33;;;;;;;6.68;4.78;;;;;;;6.16;73.19;98838.50;5049316;28;20021;-66
2022/11/22 00:11:59;;;;;;;6.65;4.75;;;;;;;6.14;73.25;98840.78;5051043;28;20025;-66
2022/11/22 00:14:25;;;;;;;5.88;4.93;;;;;;;6.17;73.34;98842.94;5050881;28;20032;-67
2022/11/22 00:16:50;;;;;;;7.07;5.00;;;;;;;6.20;72.96;98856.16;5050874;28;20507;-66
2022/11/22 00:19:16;;;;;;;6.00;4.15;;;;;;;6.15;72.57;98848.78;5050643;28;20025;-66
2022/11/22 00:21:41;;;;;;;5.53;4.43;;;;;;;6.24;72.22;98854.38;5050706;28;20025;-67
2022/11/22 00:24:07;;;;;;;6.43;4.38;;;;;;;6.29;72.19;98847.84;5044484;28;20029;-66
2022/11/22 00:26:33;;;;;;;5.95;4.85;;;;;;;6.42;71.91;98852.47;5033280;28;20408;-66
2022/11/22 00:28:58;;;;;;;5.40;4.85;;;;;;;6.44;70.98;98854.94;5032892;28;20120;-66
2022/11/22 00:31:24;;;;;;;5.35;4.35;;;;;;;6.39;70.11;98844.78;5050706;28;20017;-66
2022/11/22 00:33:49;;;;;;;11.27;4.95;;;;;;;6.57;70.10;98850.38;5050746;28;20021;-66
2022/11/22 00:36:16;;;;;;;5.43;4.00;;;;;;;6.54;70.00;98854.63;5050710;28;20467;-66
2022/11/22 00:38:42;;;;;;;4.82;3.92;;;;;;;6.69;69.12;98852.53;5049156;28;20032;-66
2022/11/22 00:41:07;;;;;;;4.25;3.85;;;;;;;6.69;69.07;98866.44;5050674;28;20099;-67
2022/11/22 00:43:33;;;;;;;5.00;4.43;;;;;;;6.74;69.02;98866.28;5032711;28;20020;-66
2022/11/22 00:45:59;;;;;;;7.97;4.82;;;;;;;6.72;69.15;98874.13;5050140;28;20048;-67
2022/11/22 00:48:25;;;;;;;5.30;4.45;;;;;;;6.74;69.18;98866.28;5033289;28;20082;-66
2022/11/22 00:50:50;;;;;;;6.63;4.55;;;;;;;6.90;69.19;98874.97;5052428;28;20017;-67
2022/11/22 00:53:16;;;;;;;6.22;4.80;;;;;;;6.96;68.94;98882.03;5051044;28;20033;-67
2022/11/22 00:55:41;;;;;;;5.57;4.50;;;;;;;6.91;68.97;98884.13;5049749;28;20107;-66
2022/11/22 00:58:07;;;;;;;6.97;4.80;;;;;;;6.65;69.58;98887.69;5054126;28;20100;-67
2022/11/22 01:00:32;;;;;;;8.45;5.95;;;;;;;6.38;70.34;98886.78;5053826;28;20025;-66
2022/11/22 01:02:58;;;;;;;9.73;7.78;;;;;;;6.06;71.62;98892.34;5054270;28;20090;-67
2022/11/22 01:05:23;;;;;;;10.98;8.75;;;;;;;6.02;72.82;98888.59;5054121;28;20025;-66
2022/11/22 01:07:49;;;;;;;8.43;5.85;;;;;;;6.03;72.16;98888.28;5034986;28;20021;-66
2022/11/22 01:10:14;;;;;;;6.75;5.63;;;;;;;6.12;72.58;98884.72;5053962;28;20021;-67
2022/11/22 01:12:40;;;;;;;6.20;5.30;;;;;;;6.12;72.49;98879.97;5053969;28;20458;-66
2022/11/22 01:15:06;;;;;;;7.70;4.90;;;;;;;5.78;73.46;98886.13;5053637;28;20028;-67
2022/11/22 01:17:31;;;;;;;8.15;5.28;;;;;;;5.52;74.58;98886.78;5035941;28;20025;-66
2022/11/22 01:19:56;;;;;;;7.78;5.20;;;;;;;5.51;74.69;98883.19;5053831;28;20030;-66
2022/11/22 01:22:22;;;;;;;8.10;5.35;;;;;;;5.40;75.21;98896.47;5052680;28;20017;-66
2022/11/22 01:24:47;;;;;;;6.88;5.22;;;;;;;5.34;75.27;98887.47;5053682;28;20032;-66
2022/11/22 01:27:13;;;;;;;8.18;6.07;;;;;;;5.36;75.27;98889.94;5035928;28;20037;-66
2022/11/22 01:29:38;;;;;;;6.30;5.15;;;;;;;5.31;75.41;98881.75;5035290;28;20557;-66
2022/11/22 01:32:04;;;;;;;7.72;5.55;;;;;;;5.30;75.85;98885.63;5053707;28;20047;-66
2022/11/22 01:34:30;;;;;;;6.97;5.38;;;;;;;5.38;75.49;98889.63;5049294;28;20104;-66
2022/11/22 01:36:56;;;;;;;8.20;6.03;;;;;;;5.44;75.07;98874.47;5053571;28;20039;-66
2022/11/22 01:39:21;;;;;;;7.65;5.55;;;;;;;5.37;75.24;98888.78;5030205;28;20035;-66
2022/11/22 01:41:46;;;;;;;8.77;6.15;;;;;;;5.37;75.09;98879.63;5035281;28;20033;-67
2022/11/22 01:44:24;;;;;;;7.65;5.43;;;;;;;5.27;75.38;98878.78;5053272;28;20036;-66
2022/11/22 01:47:03;;;;;;;14.85;6.43;;;;;;;5.39;75.11;98894.03;5035203;28;20126;-66
2022/11/22 01:49:38;;;;;;;9.88;6.05;;;;;;;5.42;75.33;98885.88;5035880;28;20060;-66
2022/11/22 01:52:13;;;;;;;8.40;6.18;;;;;;;5.55;74.78;98881.41;5033371;28;20074;-66
2022/11/22 01:54:41;;;;;;;7.72;6.03;;;;;;;5.46;74.70;98892.47;5053246;28;20521;-66
2022/11/22 01:57:15;;;;;;;7.40;5.82;;;;;;;5.72;74.54;98880.72;5052713;28;20116;-67
2022/11/22 01:59:47;;;;;;;7.78;5.65;;;;;;;5.90;72.95;98878.03;5053026;28;20063;-66
2022/11/22 02:02:12;;;;;;;8.40;5.60;;;;;;;5.98;72.84;98879.25;5052448;28;20039;-66
2022/11/22 02:04:41;;;;;;;6.43;5.63;;;;;;;6.10;72.28;98882.25;5051973;28;20029;-66
2022/11/22 02:07:28;;;;;;;7.13;5.35;;;;;;;6.19;71.61;98873.97;5052708;28;20025;-67
2022/11/22 02:09:54;;;;;;;8.88;6.13;;;;;;;6.14;71.61;98888.81;5052743;28;20534;-66
2022/11/22 02:12:24;;;;;;;10.82;5.25;;;;;;;5.97;71.68;98891.44;5034762;28;20056;-66
2022/11/22 02:14:50;;;;;;;7.15;5.55;;;;;;;6.06;71.26;98877.66;5034937;28;20090;-66
2022/11/22 02:17:15;;;;;;;6.28;5.18;;;;;;;5.96;71.60;98887.88;5051787;28;20137;-66
2022/11/22 02:19:44;;;;;;;7.55;5.70;;;;;;;6.05;71.64;98893.50;5052601;28;20061;-66
2022/11/22 02:22:30;;;;;;;6.20;4.85;;;;;;;6.32;70.70;98888.88;5052553;28;20025;-67
2022/11/22 02:25:16;;;;;;;5.88;5.20;;;;;;;6.20;70.63;98891.44;5030879;28;20115;-66
2022/11/22 02:27:42;;;;;;;5.97;5.32;;;;;;;6.08;70.82;98892.84;5052734;28;20024;-66
2022/11/22 02:30:08;;;;;;;5.88;4.30;;;;;;;6.15;71.12;98897.94;5052372;28;20499;-66
2022/11/22 02:32:34;;;;;;;8.75;5.28;;;;;;;6.14;70.88;98890.75;5034549;28;20090;-66
2022/11/22 02:34:59;;;;;;;5.93;4.82;;;;;;;5.96;71.04;98900.91;5052274;28;20029;-66
2022/11/22 02:37:30;;;;;;;6.47;5.07;;;;;;;6.00;70.88;98902.75;5051119;28;20025;-66
2022/11/22 02:39:57;;;;;;;;;;;;;;;5.80;71.29;98897.75;5053012;28;20040;-66
2022/11/22 02:42:24;;;;;;;6.82;5.00;;;;;;;5.83;71.12;98897.09;5052253;28;19912;-66
2022/11/22 02:44:50;;;;;;;6.72;5.25;;;;;;;5.63;72.09;98893.72;5052150;28;20094;-67
2022/11/22 02:47:16;;;;;;;8.95;6.03;;;;;;;5.51;72.14;98899.84;5051856;28;20053;-66
2022/11/22 02:49:41;;;;;;;8.45;5.35;;;;;;;5.32;72.42;98903.59;5034116;28;20033;-66
2022/11/22 02:52:07;;;;;;;7.63;5.80;;;;;;;5.26;72.79;98896.56;5033247;28;20029;-66
2022/11/22 02:54:33;;;;;;;6.80;5.35;;;;;;;5.23;73.36;98899.94;5050790;28;20025;-66
2022/11/22 02:56:58;;;;;;;9.75;6.18;;;;;;;5.15;73.35;98898.72;5051738;28;20032;-66
2022/11/22 02:59:24;;;;;;;11.35;6.22;;;;;;;5.02;74.00;98910.69;5052074;28;20031;-67
2022/11/22 03:01:49;;;;;;;7.20;5.43;;;;;;;4.89;74.70;98906.81;5033848;28;20480;-66
2022/11/22 03:04:23;;;;;;;9.00;6.10;;;;;;;4.89;74.97;98912.38;5034095;28;20032;-67
2022/11/22 03:06:51;;;;;;;7.85;5.93;;;;;;;4.78;75.50;98907.03;5033203;28;20475;-66
2022/11/22 03:09:16;;;;;;;9.02;6.60;;;;;;;5.03;75.29;98915.91;5049521;28;20120;-66
2022/11/22 03:11:42;;;;;;;8.07;6.13;;;;;;;5.10;74.95;98915.50;5026491;28;20395;-67
2022/11/22 03:14:07;;;;;;;9.18;6.68;;;;;;;5.03;74.13;98899.28;5050709;28;20037;-67
2022/11/22 03:16:33;;;;;;;8.18;5.82;;;;;;;5.20;73.70;98912.50;5051664;28;20090;-66
2022/11/22 03:18:58;;;;;;;8.95;5.85;;;;;;;5.18;73.74;98900.88;5033789;28;20403;-66
2022/11/22 03:21:24;;;;;;;6.15;5.45;;;;;;;5.43;73.50;98911.69;5050702;28;20037;-67
2022/11/22 03:23:49;;;;;;;16.45;5.18;;;;;;;5.29;73.19;98908.94;5051541;28;20079;-66
2022/11/22 03:26:15;;;;;;;7.65;5.55;;;;;;;5.24;73.70;98918.19;5032353;28;20032;-66
2022/11/22 03:28:40;;;;;;;7.30;5.75;;;;;;;5.09;74.24;98908.31;5051545;28;20021;-67
2022/11/22 03:31:06;;;;;;;7.95;5.53;;;;;;;5.11;74.46;98916.28;5032849;28;20115;-66
2022/11/22 03:33:35;;;;;;;8.48;6.22;;;;;;;5.16;75.19;98905.09;5050991;28;20052;-66
2022/11/22 03:36:01;;;;;;;8.05;5.35;;;;;;;5.18;74.55;98906.41;5051264;28;20500;-66
2022/11/22 03:38:27;;;;;;;10.15;5.07;;;;;;;5.25;74.44;98908.78;5050084;28;20411;-67
2022/11/22 03:40:52;;;;;;;5.93;4.85;;;;;;;5.37;73.88;98916.53;5048341;28;21314;-66
2022/11/22 03:43:18;;;;;;;6.47;5.38;;;;;;;5.48;73.18;98919.88;5051306;28;20462;-66
2022/11/22 03:45:47;;;;;;;6.10;5.47;;;;;;;5.46;72.37;98928.53;5050952;28;20047;-67
2022/11/22 03:48:13;;;;;;;6.05;4.93;;;;;;;5.47;72.90;98927.38;5051179;28;20035;-66
2022/11/22 03:50:38;;;;;;;45.65;29.30;;;;;;;5.48;73.10;98922.63;5049222;28;20136;-66
2022/11/22 03:53:04;;;;;;;57.42;36.72;;;;;;;5.48;72.49;98934.56;5049702;28;20488;-66
2022/11/22 03:55:30;;;;;;;53.55;32.42;;;;;;;5.38;73.29;98934.81;5050758;28;20056;-66
2022/11/22 03:57:55;;;;;;;21.02;14.80;;;;;;;5.27;73.66;98930.63;5051005;28;20029;-66
2022/11/22 04:00:21;;;;;;;23.50;15.80;;;;;;;5.38;73.61;98936.78;5050108;28;20029;-66
2022/11/22 04:02:46;;;;;;;20.95;16.00;;;;;;;5.27;74.48;98936.19;5047502;28;20036;-66
2022/11/22 04:05:11;;;;;;;27.80;19.00;;;;;;;5.56;72.99;98944.09;5051045;28;20021;-66
2022/11/22 04:07:37;;;;;;;23.60;14.82;;;;;;;5.57;72.73;98940.19;5029397;28;20029;-66
2022/11/22 04:10:04;;;;;;;17.23;11.40;;;;;;;5.78;71.84;98936.06;5049506;28;20025;-66
2022/11/22 04:12:30;;;;;;;12.82;8.60;;;;;;;5.76;72.14;98934.44;5032067;28;20031;-66
2022/11/22 04:15:05;;;;;;;22.00;16.80;;;;;;;5.82;71.81;98931.56;5046306;28;20028;-66
2022/11/22 04:17:40;;;;;;;31.42;19.73;;;;;;;5.72;72.70;98939.00;5032898;28;20567;-66
2022/11/22 04:23:00;;;;;;;16.25;10.85;;;;;;;5.57;72.40;98931.84;5049998;28;20081;-66
2022/11/22 04:25:28;;;;;;;10.00;5.90;;;;;;;5.53;72.62;98935.56;5053433;28;20035;-66
2022/11/22 04:27:55;;;;;;;14.30;7.95;;;;;;;5.43;73.02;98939.41;5053620;28;20107;-66
2022/11/22 04:30:21;;;;;;;14.40;8.32;;;;;;;5.43;73.00;98945.81;5036930;28;20059;-66
2022/11/22 04:32:46;;;;;;;13.85;8.20;;;;;;;5.51;72.30;98943.41;5053175;28;20082;-66
2022/11/22 04:35:14;;;;;;;9.82;7.32;;;;;;;5.60;72.17;98944.28;5054767;28;20020;-66
2022/11/22 04:37:41;;;;;;;10.73;7.78;;;;;;;5.64;71.89;98942.50;5054184;28;20411;-67
2022/11/22 04:40:07;;;;;;;9.68;5.70;;;;;;;5.70;70.77;98948.75;5053470;28;20496;-66
2022/11/22 04:45:17;;;;;;;8.27;5.22;;;;;;;5.80;70.53;98950.47;5054650;28;20411;-66
2022/11/22 04:47:57;;;;;;;6.30;5.15;;;;;;;5.75;70.95;98959.75;5054393;28;20037;-66
2022/11/22 04:53:08;;;;;;;9.65;5.28;;;;;;;5.76;70.87;98962.19;5051940;28;20044;-66
2022/11/22 04:55:33;;;;;;;10.32;5.93;;;;;;;5.79;70.85;98973.78;5035999;28;20029;-66
2022/11/22 04:57:59;;;;;;;12.30;9.85;;;;;;;5.81;70.96;98972.34;5054235;28;20039;-66
2022/11/22 05:00:26;;;;;;;13.10;9.80;;;;;;;5.60;71.88;98981.16;5054238;28;20033;-66
2022/11/22 05:02:52;;;;;;;15.23;9.82;;;;;;;5.69;71.74;98989.59;5034871;28;20029;-66
2022/11/22 05:05:17;;;;;;;14.10;9.18;;;;;;;5.78;71.95;98991.59;5036286;28;20470;-66
2022/11/22 05:07:42;;;;;;;12.18;9.23;;;;;;;5.85;70.78;98998.38;5052609;28;20450;-66
2022/11/22 05:10:09;;;;;;;27.95;17.75;;;;;;;5.88;71.22;98999.66;5036270;28;20093;-66
2022/11/22 05:12:34;;;;;;;31.02;20.75;;;;;;;5.96;70.69;98993.38;5034993;28;20027;-66
2022/11/22 05:15:00;;;;;;;25.92;15.75;;;;;;;5.93;70.92;99001.50;5053946;28;20025;-66
2022/11/22 05:17:26;;;;;;;15.80;11.18;;;;;;;5.87;70.85;99011.91;5035950;28;20033;-66
2022/11/22 05:19:51;;;;;;;13.88;9.10;;;;;;;5.81;70.91;99016.75;5053850;28;20032;-66
2022/11/22 05:23:52;;;;;;;14.93;9.05;;;;;;;5.72;70.79;99021.41;5051574;28;20040;-66
2022/11/22 05:25:02;;;;;;;12.35;7.47;;;;;;;5.80;71.21;99023.44;5053782;28;20586;-66
2022/11/22 05:27:27;;;;;;;8.57;6.35;;;;;;;5.84;71.04;99018.09;5053792;28;20033;-66
2022/11/22 05:29:53;;;;;;;9.45;6.47;;;;;;;5.69;71.22;99016.50;5053143;28;20044;-66
2022/11/22 05:32:18;;;;;;;10.70;7.70;;;;;;;5.68;71.51;99026.78;5053682;28;20032;-67
2022/11/22 05:34:44;;;;;;;18.90;11.88;;;;;;;5.70;71.55;99032.00;5034649;28;20029;-67
2022/11/22 05:37:09;;;;;;;14.18;10.10;;;;;;;5.82;71.43;99031.47;5033078;28;20030;-67
2022/11/22 05:39:35;;;;;;;13.80;8.40;;;;;;;5.87;71.14;99028.56;5034578;28;20029;-66
2022/11/22 05:42:00;;;;;;;14.32;9.68;;;;;;;5.98;70.86;99049.38;5053506;28;20021;-66
2022/11/22 05:44:25;;;;;;;14.48;9.23;;;;;;;5.77;71.51;99043.50;5051849;28;20029;-68
2022/11/22 05:46:51;;;;;;;15.73;8.23;;;;;;;5.59;72.38;99040.56;5052334;28;20511;-67
2022/11/22 05:49:16;;;;;;;10.90;7.53;;;;;;;5.42;73.17;99041.22;5051849;28;20032;-66
2022/11/22 05:51:42;;;;;;;8.82;6.45;;;;;;;5.34;73.35;99036.41;5053364;28;20029;-66
2022/11/22 05:54:07;;;;;;;15.10;8.23;;;;;;;5.62;72.72;99048.28;5051744;28;20025;-66
2022/11/22 05:56:33;;;;;;;10.02;6.57;;;;;;;5.68;72.80;99043.44;5049675;28;20028;-66
2022/11/22 05:58:58;;;;;;;15.85;6.78;;;;;;;5.78;72.06;99050.69;5035017;28;20036;-66
2022/11/22 06:01:24;;;;;;;17.30;9.30;;;;;;;5.79;72.58;99059.84;5053127;28;20488;-67
2022/11/22 06:03:50;;;;;;;24.10;10.15;;;;;;;5.97;71.50;99050.53;5033338;28;20075;-67
2022/11/22 06:06:16;;;;;;;29.30;14.75;;;;;;;6.24;70.99;99051.56;5050058;28;20032;-67
2022/11/22 06:08:45;;;;;;;35.95;19.38;;;;;;;6.43;70.37;99051.34;5032401;28;20031;-67
2022/11/22 06:11:21;;;;;;;41.87;19.97;;;;;;;6.58;69.76;99052.91;5053061;28;20397;-66
2022/11/22 06:13:49;;;;;;;33.17;12.25;;;;;;;6.63;69.15;99051.97;5034494;28;20032;-68
2022/11/22 06:16:15;;;;;;;57.85;14.48;;;;;;;6.39;69.74;99060.66;5048622;28;20029;-65
2022/11/22 06:18:40;;;;;;;20.35;9.73;;;;;;;6.28;70.57;99058.16;5034490;28;20072;-66
2022/11/22 06:21:10;;;;;;;42.33;22.05;;;;;;;6.35;70.41;99046.59;5047905;28;20167;-66
2022/11/22 06:23:35;;;;;;;39.23;19.53;;;;;;;6.57;69.35;99040.16;5051023;28;20024;-65
2022/11/22 06:26:04;;;;;;;28.45;13.75;;;;;;;6.70;68.85;99043.19;5050631;28;20106;-66
2022/11/22 06:28:31;;;;;;;18.30;11.75;;;;;;;6.62;69.13;99053.13;5050664;28;20040;-67
2022/11/22 06:31:11;;;;;;;18.02;10.07;;;;;;;6.74;68.75;99060.84;5052438;28;20029;-65
2022/11/22 06:33:37;;;;;;;20.52;12.48;;;;;;;6.62;69.97;99061.44;5046980;28;20028;-68
2022/11/22 06:36:03;;;;;;;24.17;11.57;;;;;;;6.92;69.38;99072.88;5033092;28;20119;-69
2022/11/22 06:38:29;;;;;;;17.17;9.00;;;;;;;6.96;69.30;99073.88;5049067;28;20403;-65
2022/11/22 06:41:01;;;;;;;15.13;9.27;;;;;;;7.17;68.46;99078.84;5049632;28;20029;-68
2022/11/22 06:43:28;;;;;;;17.20;10.05;;;;;;;7.03;68.15;99073.41;5032590;28;20036;-67
2022/11/22 06:45:58;;;;;;;11.93;9.13;;;;;;;6.96;68.44;99062.75;5032745;28;20049;-67
2022/11/22 06:48:25;;;;;;;13.07;9.30;;;;;;;7.13;68.43;99064.78;5050445;28;20520;-67
2022/11/22 06:50:50;;;;;;;14.30;9.20;;;;;;;7.35;67.94;99081.72;5045097;28;20031;-67
2022/11/22 06:53:16;;;;;;;14.35;8.18;;;;;;;7.53;67.17;99088.13;5047845;28;20394;-67
2022/11/22 06:55:41;;;;;;;21.98;11.05;;;;;;;7.69;66.35;99086.53;5050466;28;20043;-67
2022/11/22 06:58:07;;;;;;;22.88;12.18;;;;;;;7.77;66.26;99096.03;5038708;28;20538;-70
2022/11/22 07:00:32;;;;;;;17.92;10.35;;;;;;;7.76;66.53;99104.72;5050731;28;20590;-68
2022/11/22 07:02:57;;;;;;;19.42;7.85;;;;;;;7.88;65.31;99096.56;5023458;28;20408;-75
2022/11/22 07:05:23;;;;;;;21.15;11.23;;;;;;;7.63;66.36;99089.78;5047747;28;20036;-69
2022/11/22 07:07:48;;;;;;;17.63;9.07;;;;;;;7.82;65.94;99098.66;5044906;28;20052;-68
2022/11/22 07:10:14;;;;;;;16.40;9.15;;;;;;;7.89;65.64;99092.63;5030198;28;20037;-70
2022/11/22 07:12:40;;;;;;;18.00;8.43;;;;;;;7.96;64.57;99098.53;5029894;28;20041;-72
2022/11/22 07:15:05;;;;;;;15.32;7.70;;;;;;;7.91;64.64;99098.69;5043908;28;20028;-69
2022/11/22 07:17:31;;;;;;;13.80;8.50;;;;;;;8.05;64.15;99089.34;5048982;28;20103;-76
2022/11/22 07:19:56;;;;;;;15.10;8.43;;;;;;;7.98;64.81;99090.66;5048250;28;20377;-73
2022/11/22 07:22:22;;;;;;;13.13;8.40;;;;;;;8.12;64.75;99090.47;5049605;28;20033;-71
2022/11/22 07:24:47;;;;;;;12.48;8.88;;;;;;;7.57;66.44;99076.03;5032018;28;20032;-70
2022/11/22 07:27:13;;;;;;;9.25;6.78;;;;;;;7.45;67.66;99082.22;5047429;28;20035;-74
2022/11/22 07:29:38;;;;;;;39.15;9.60;;;;;;;7.72;67.19;99077.53;5047728;28;20443;-72
2022/11/22 07:32:04;;;;;;;13.20;7.97;;;;;;;7.83;67.06;99066.91;5040366;28;20021;-77
2022/11/22 07:34:29;;;;;;;12.32;7.28;;;;;;;8.03;65.91;99064.63;5047605;28;20045;-72
2022/11/22 07:36:55;;;;;;;10.32;6.53;;;;;;;8.15;64.06;99067.56;5030652;28;20128;-69
2022/11/22 07:39:20;;;;;;;7.32;5.70;;;;;;;8.19;64.60;99062.13;5047023;28;20037;-74
2022/11/22 07:41:46;;;;;;;7.50;5.93;;;;;;;8.19;64.10;99062.13;5049118;28;20029;-72
2022/11/22 07:44:11;;;;;;;12.20;6.78;;;;;;;8.16;65.67;99057.22;5023097;28;20574;-70
2022/11/22 07:46:37;;;;;;;16.70;6.10;;;;;;;8.12;64.76;99061.81;5042071;28;20080;-73
2022/11/22 07:49:05;;;;;;;5.85;4.90;;;;;;;8.19;64.17;99048.19;5028229;28;20496;-66
2022/11/22 07:51:31;;;;;;;7.10;5.50;;;;;;;8.26;64.51;99050.47;5042171;28;20017;-64
2022/11/22 07:53:56;;;;;;;6.30;5.20;;;;;;;8.37;65.30;99037.84;5025966;28;20052;-63
2022/11/22 07:56:22;;;;;;;7.05;5.07;;;;;;;8.49;65.13;99031.59;5047987;28;20082;-66
2022/11/22 07:58:48;;;;;;;15.65;4.82;;;;;;;8.44;63.79;99028.97;5030861;28;20040;-65
2022/11/22 08:01:16;;;;;;;7.25;6.00;;;;;;;8.54;64.71;99025.88;5030325;28;20068;-66
2022/11/22 08:03:42;;;;;;;12.35;5.65;;;;;;;8.90;63.90;99026.59;5049520;28;20488;-66
2022/11/22 08:06:09;;;;;;;8.77;6.57;;;;;;;9.06;62.66;99032.41;5047701;28;20502;-66
2022/11/22 08:08:35;;;;;;;10.18;5.38;;;;;;;9.13;62.59;99027.13;5046197;28;20753;-65
2022/11/22 08:11:01;;;;;;;7.25;5.35;;;;;;;9.31;61.82;99027.03;5047002;28;20106;-65
2022/11/22 08:13:27;;;;;;;6.28;4.82;;;;;;;9.26;61.12;99032.78;5044449;28;20040;-65
2022/11/22 08:15:53;;;;;;;7.18;5.00;;;;;;;9.30;61.51;99033.78;5028488;28;20029;-66
2022/11/22 08:18:19;;;;;;;9.55;4.22;;;;;;;9.40;61.05;99033.34;5042855;28;20036;-65
2022/11/22 08:20:44;;;;;;;6.43;3.78;;;;;;;9.38;60.33;99032.09;5042137;28;20033;-67
2022/11/22 08:23:10;;;;;;;7.50;4.25;;;;;;;9.62;60.85;99030.63;5044159;28;20040;-67
2022/11/22 08:25:35;;;;;;;6.13;4.55;;;;;;;9.97;59.38;99031.16;5022233;28;20484;-66
2022/11/22 08:28:00;;;;;;;10.25;5.90;;;;;;;10.14;59.26;99029.38;5046299;28;20028;-66
2022/11/22 08:30:26;;;;;;;5.28;4.20;;;;;;;10.23;57.61;99021.72;5045228;28;20034;-62
2022/11/22 08:32:55;;;;;;;10.90;4.30;;;;;;;10.10;57.20;99018.06;5045321;28;20106;-63
2022/11/22 08:35:20;;;;;;;4.60;3.58;;;;;;;10.39;56.53;99016.28;5027091;28;20116;-65
2022/11/22 08:37:46;;;;;;;4.95;4.25;;;;;;;10.56;55.58;98999.69;5044139;28;20183;-63
2022/11/22 08:40:12;;;;;;;7.47;4.90;;;;;;;10.94;56.00;98979.81;5042806;28;20116;-63
2022/11/22 08:42:37;;;;;;;5.35;4.50;;;;;;;11.10;53.95;98979.13;5048835;28;20037;-63
2022/11/22 08:45:06;;;;;;;11.10;7.90;;;;;;;11.26;54.63;98975.59;5044711;28;20024;-63
2022/11/22 08:47:32;;;;;;;5.27;4.77;;;;;;;11.29;53.70;98986.91;5027821;28;20511;-64
2022/11/22 08:49:58;;;;;;;5.07;4.15;;;;;;;11.11;54.22;98986.34;5047655;28;20029;-64
2022/11/22 08:52:23;;;;;;;7.55;3.80;;;;;;;10.89;53.40;98985.63;5023247;28;20574;-62
2022/11/22 08:54:49;;;;;;;10.45;4.47;;;;;;;11.00;54.74;98979.56;5042688;28;20033;-66
2022/11/22 08:57:14;;;;;;;16.63;10.75;;;;;;;10.71;56.15;98967.44;5049909;28;20029;-64
2022/11/22 08:59:40;;;;;;;6.80;5.05;;;;;;;10.78;54.28;98974.09;5049033;28;20029;-64
2022/11/22 09:02:05;;;;;;;6.53;3.65;;;;;;;11.20;52.99;98969.41;5048691;28;20053;-65
2022/11/22 09:04:30;;;;;;;6.43;3.97;;;;;;;11.51;51.56;98979.19;5029172;28;20028;-63
2022/11/22 09:06:56;;;;;;;6.30;3.72;;;;;;;11.48;51.13;98977.09;5046563;28;20025;-65
2022/11/22 09:09:22;;;;;;;5.10;4.05;;;;;;;11.81;51.15;98973.25;5026935;28;20035;-65
2022/11/22 09:11:47;;;;;;;4.25;3.58;;;;;;;11.56;50.86;98976.13;5044931;28;20021;-66
2022/11/22 09:14:13;;;;;;;4.43;3.30;;;;;;;12.19;50.27;98963.56;5052666;28;20033;-64
2022/11/22 09:16:38;;;;;;;4.63;3.30;;;;;;;12.62;48.82;98958.28;5051814;28;20530;-63
2022/11/22 09:19:04;;;;;;;5.35;3.30;;;;;;;12.59;49.74;98958.97;5034979;28;20029;-62
2022/11/22 09:21:29;;;;;;;4.90;3.28;;;;;;;12.48;48.93;98946.66;5053248;28;20036;-65
2022/11/22 09:23:55;;;;;;;5.03;3.47;;;;;;;12.27;49.87;98944.09;5053384;28;20064;-63
2022/11/22 09:26:23;;;;;;;5.38;3.50;;;;;;;12.40;49.33;98951.28;5033798;28;20025;-63
2022/11/22 09:28:49;;;;;;;5.05;4.10;;;;;;;12.38;49.58;98952.81;5053330;28;20182;-62
2022/11/22 09:31:18;;;;;;;6.20;5.38;;;;;;;12.39;48.53;98952.44;5050724;28;20107;-64
2022/11/22 09:33:45;;;;;;;3.53;3.22;;;;;;;12.24;48.52;98950.44;5050787;28;20033;-64
2022/11/22 09:36:15;;;;;;;4.18;3.67;;;;;;;12.17;48.78;98959.47;5053166;28;20411;-63
2022/11/22 09:38:41;;;;;;;2.88;2.65;;;;;;;12.59;47.22;98955.38;5053263;28;20024;-63
2022/11/22 09:41:16;;;;;;;5.45;3.72;;;;;;;12.67;46.95;98962.81;5027229;28;20600;-63
2022/11/22 09:43:53;;;;;;;3.15;2.85;;;;;;;12.77;47.18;98967.84;5023323;28;20532;-63
2022/11/22 09:46:37;;;;;;;6.15;4.65;;;;;;;12.69;46.74;98970.84;5019056;28;20092;-63
2022/11/22 09:49:08;;;;;;;7.55;4.32;;;;;;;12.82;46.91;98951.94;5040021;28;20029;-64
2022/11/22 09:51:43;;;;;;;4.97;3.67;;;;;;;12.61;48.76;98955.81;5018266;28;20025;-63
2022/11/22 09:54:26;;;;;;;5.25;4.13;;;;;;;12.31;49.10;98945.03;5021654;28;20129;-62
2022/11/22 09:56:54;;;;;;;7.45;3.50;;;;;;;12.14;48.54;98949.78;5047737;28;20393;-64
2022/11/22 09:59:29;;;;;;;3.63;3.20;;;;;;;12.08;49.48;98948.44;5044377;28;20033;-64
2022/11/22 10:02:00;;;;;;;5.32;4.47;;;;;;;12.00;48.86;98940.94;5031188;28;20029;-64
2022/11/22 10:04:36;;;;;;;6.70;3.88;;;;;;;11.92;50.22;98943.53;5040902;28;20032;-63
2022/11/22 10:07:26;;;;;;;4.47;3.65;;;;;;;12.02;48.86;98931.06;5028791;28;20056;-64
2022/11/22 10:10:10;;;;;;;10.90;5.18;;;;;;;12.12;49.66;98924.09;5036450;28;20124;-65
2022/11/22 10:12:51;;;;;;;5.15;2.80;;;;;;;12.11;49.05;98918.84;5046203;28;20032;-66
2022/11/22 10:15:47;;;;;;;6.00;3.22;;;;;;;12.03;51.01;98920.66;5028700;28;20044;-68
2022/11/22 10:18:52;;;;;;;4.95;3.67;;;;;;;11.92;50.30;98915.53;5043998;28;20681;-68
2022/11/22 10:21:18;;;;;;;4.00;2.92;;;;;;;11.95;50.07;98919.59;5031167;28;20045;-68
2022/11/22 10:23:46;;;;;;;3.92;3.17;;;;;;;12.14;48.98;98920.94;5049662;28;20082;-66
2022/11/22 10:26:14;;;;;;;8.40;3.95;;;;;;;12.40;48.28;98930.84;5049192;28;20033;-68
2022/11/22 10:28:46;;;;;;;4.57;2.70;;;;;;;12.48;48.04;98938.25;5029953;28;20034;-68
2022/11/22 10:31:20;;;;;;;10.50;3.85;;;;;;;12.46;47.94;98930.22;5037209;28;20037;-69
2022/11/22 10:34:04;;;;;;;7.72;3.25;;;;;;;12.40;48.96;98926.03;5026438;28;20052;-69
2022/11/22 10:37:05;;;;;;;7.10;4.07;;;;;;;12.64;48.49;98929.84;5042217;28;20124;-68
2022/11/22 10:40:01;;;;;;;5.45;3.92;;;;;;;12.62;47.64;98918.16;4990728;28;20052;-66
2022/11/22 10:43:12;;;;;;;5.22;3.70;;;;;;;12.65;48.66;98911.81;5044023;28;20029;-67
2022/11/22 10:45:56;;;;;;;;;;;;;;;12.59;47.72;98904.88;5032021;28;20419;-65
2022/11/22 10:48:27;;;;;;;7.10;4.47;;;;;;;12.64;48.46;98880.16;5023719;28;19913;-68
2022/11/22 10:51:09;;;;;;;9.43;4.97;;;;;;;12.56;48.46;98877.56;5048591;28;20051;-65
2022/11/22 10:54:15;;;;;;;7.40;4.28;;;;;;;12.61;48.10;98868.84;5033845;28;20408;-64
2022/11/22 10:56:52;;;;;;;5.15;3.92;;;;;;;12.42;48.86;98866.78;5045326;28;20415;-68
2022/11/22 11:00:00;;;;;;;4.80;3.80;;;;;;;12.54;48.08;98865.84;5038776;28;20026;-67
2022/11/22 11:02:46;;;;;;;11.00;4.65;;;;;;;12.58;47.15;98866.78;5041656;28;20029;-66
2022/11/22 11:05:17;;;;;;;8.27;4.70;;;;;;;12.36;48.24;98841.81;5043219;28;20025;-67
2022/11/22 11:07:47;;;;;;;7.82;5.13;;;;;;;12.33;48.57;98847.34;5046090;28;20148;-68
2022/11/22 11:10:19;;;;;;;6.93;4.87;;;;;;;11.96;49.59;98834.34;5021158;28;20052;-68
2022/11/22 11:12:52;;;;;;;5.90;4.10;;;;;;;11.87;50.25;98836.50;5043591;28;20412;-65
2022/11/22 11:15:22;;;;;;;7.25;5.60;;;;;;;11.97;49.87;98852.00;5025610;28;20119;-68
2022/11/22 11:18:07;;;;;;;;;;;;;;;11.94;49.35;98851.53;5031110;28;20555;-65
2022/11/22 11:20:40;;;;;;;9.40;5.10;;;;;;;11.98;50.10;98839.59;5040720;28;19912;-63
2022/11/22 11:23:05;;;;;;;7.22;4.10;;;;;;;11.84;49.68;98840.84;5035811;28;20504;-67
2022/11/22 11:25:33;;;;;;;8.18;4.88;;;;;;;11.99;50.53;98844.03;5047163;28;20032;-65
2022/11/22 11:28:07;;;;;;;11.48;4.78;;;;;;;11.97;49.88;98837.97;5036381;28;20425;-65
2022/11/22 11:30:45;;;;;;;5.88;4.50;;;;;;;11.94;49.80;98829.13;5036751;28;20404;-65
2022/11/22 11:33:22;;;;;;;8.80;5.10;;;;;;;11.85;51.14;98817.25;5035134;28;20072;-66
2022/11/22 11:35:53;;;;;;;10.00;5.40;;;;;;;11.73;51.59;98820.13;5032804;28;20045;-65
2022/11/22 11:38:33;;;;;;;12.38;6.47;;;;;;;11.77;52.11;98826.66;5025793;28;20523;-65
2022/11/22 11:41:27;;;;;;;10.02;6.45;;;;;;;11.78;51.74;98817.88;5045042;28;20458;-64
2022/11/22 11:43:55;;;;;;;9.57;6.60;;;;;;;11.67;52.04;98822.38;5015709;28;20037;-66
2022/11/22 11:46:22;;;;;;;11.27;6.75;;;;;;;11.74;52.13;98824.56;5012560;28;20473;-65
2022/11/22 11:49:08;;;;;;;16.30;6.13;;;;;;;11.72;52.49;98835.31;5009962;28;20473;-64
2022/11/22 11:51:39;;;;;;;10.68;6.35;;;;;;;11.73;54.33;98814.53;5021079;28;20094;-66
2022/11/22 11:54:18;;;;;;;7.22;6.03;;;;;;;11.68;55.61;98809.19;4994634;28;20025;-65